createdAt,value
2022-08-22T00:00:17.257Z,3.80
2022-08-22T00:02:56.264Z,4.00
2022-08-22T00:02:57.557Z,2.00
2022-08-22T00:03:11.263Z,4.00
2022-08-22T00:03:16.175Z,4.00
2022-08-22T00:05:46.541Z,2.80
2022-08-22T00:08:23.343Z,3.50
2022-08-22T00:10:57.835Z,3.00
2022-08-22T00:13:32.849Z,3.00
2022-08-22T00:16:06.946Z,3.00
2022-08-22T00:18:41.417Z,3.00
2022-08-22T00:21:15.894Z,4.60
2022-08-22T00:23:50.942Z,3.40
2022-08-22T00:26:25.932Z,4.00
2022-08-22T00:28:59.981Z,4.00
2022-08-22T00:31:34.437Z,3.00
2022-08-22T00:34:09.475Z,3.00
2022-08-22T00:36:47.699Z,3.00
2022-08-22T00:39:22.002Z,4.00
2022-08-22T00:41:56.493Z,3.00
2022-08-22T00:44:31.574Z,4.00
2022-08-22T00:47:06.495Z,3.00
2022-08-22T00:49:40.841Z,3.00
2022-08-22T00:52:15.354Z,2.00
2022-08-22T00:54:52.367Z,3.40
2022-08-22T00:57:27.532Z,3.00
2022-08-22T01:00:01.562Z,3.00
2022-08-22T01:02:36.007Z,4.00
2022-08-22T01:05:10.484Z,4.00
2022-08-22T01:07:44.509Z,4.00
2022-08-22T01:10:18.917Z,3.00
2022-08-22T01:12:53.385Z,3.00
2022-08-22T01:15:27.965Z,3.00
2022-08-22T01:18:03.032Z,3.00
2022-08-22T01:20:37.523Z,3.40
2022-08-22T01:23:11.989Z,4.00
2022-08-22T01:25:46.472Z,4.00
2022-08-22T01:28:24.061Z,3.00
2022-08-22T01:30:59.978Z,4.00
2022-08-22T01:33:34.377Z,4.00
2022-08-22T01:36:08.779Z,5.00
2022-08-22T01:38:46.134Z,5.00
2022-08-22T01:41:21.082Z,4.00
2022-08-22T01:44:00.619Z,5.00
2022-08-22T01:46:35.094Z,4.00
2022-08-22T01:49:09.625Z,3.50
2022-08-22T01:51:44.068Z,4.80
2022-08-22T01:54:18.735Z,4.00
2022-08-22T01:56:53.135Z,5.40
2022-08-22T01:59:33.825Z,4.00
2022-08-22T02:02:08.520Z,5.00
2022-08-22T02:04:43.016Z,4.75
2022-08-22T02:07:37.108Z,5.75
2022-08-22T02:10:11.525Z,6.20
2022-08-22T02:12:46.011Z,5.00
2022-08-22T02:15:21.059Z,5.67
2022-08-22T02:17:55.557Z,4.25
2022-08-22T02:20:30.070Z,5.00
2022-08-22T02:23:04.928Z,5.00
2022-08-22T02:25:39.191Z,6.00
2022-08-22T02:28:13.605Z,5.00
2022-08-22T02:31:06.963Z,5.00
2022-08-22T02:33:42.760Z,7.20
2022-08-22T02:36:17.229Z,5.00
2022-08-22T02:38:52.230Z,4.00
2022-08-22T02:41:27.248Z,5.00
2022-08-22T02:44:05.887Z,5.00
2022-08-22T02:46:40.026Z,6.00
2022-08-22T02:49:14.462Z,5.00
2022-08-22T02:51:48.559Z,6.00
2022-08-22T02:54:23.486Z,8.00
2022-08-22T02:56:57.995Z,8.25
2022-08-22T02:59:33.053Z,8.00
2022-08-22T03:02:07.075Z,8.00
2022-08-22T03:04:45.144Z,7.00
2022-08-22T03:07:19.221Z,8.00
2022-08-22T03:09:54.309Z,6.25
2022-08-22T03:12:29.461Z,8.00
2022-08-22T03:15:04.103Z,7.00
2022-08-22T03:17:39.449Z,9.00
2022-08-22T03:20:13.491Z,12.00
2022-08-22T03:22:48.673Z,16.00
2022-08-22T03:25:23.091Z,20.60
2022-08-22T03:27:57.623Z,18.50
2022-08-22T03:30:31.657Z,19.00
2022-08-22T03:33:06.380Z,20.80
2022-08-22T03:35:41.281Z,22.00
2022-08-22T03:38:16.406Z,23.00
2022-08-22T03:40:50.784Z,22.20
2022-08-22T03:43:25.825Z,19.50
2022-08-22T03:45:59.824Z,18.00
2022-08-22T03:48:34.279Z,21.00
2022-08-22T03:51:08.753Z,21.00
2022-08-22T03:53:43.117Z,22.00
2022-08-22T03:56:17.146Z,19.50
2022-08-22T03:58:53.353Z,21.00
2022-08-22T04:01:27.879Z,18.00
2022-08-22T04:04:02.347Z,16.00
2022-08-22T04:06:37.129Z,18.20
2022-08-22T04:09:12.581Z,18.40
2022-08-22T04:11:48.882Z,21.00
2022-08-22T04:14:25.235Z,16.00
2022-08-22T04:17:01.284Z,15.40
2022-08-22T04:19:39.557Z,12.75
2022-08-22T04:22:13.580Z,15.00
2022-08-22T04:24:48.956Z,14.00
2022-08-22T04:27:26.830Z,14.00
2022-08-22T04:30:02.603Z,12.00
2022-08-22T04:32:37.423Z,16.80
2022-08-22T04:35:12.544Z,17.00
2022-08-22T04:37:47.775Z,13.40
2022-08-22T04:40:22.608Z,15.00
2022-08-22T04:42:57.155Z,14.00
2022-08-22T04:45:31.696Z,18.40
2022-08-22T04:48:25.815Z,17.00
2022-08-22T04:51:00.262Z,17.00
2022-08-22T04:53:34.693Z,19.60
2022-08-22T04:56:09.196Z,20.40
2022-08-22T04:58:43.846Z,22.50
2022-08-22T05:01:17.911Z,20.00
2022-08-22T05:03:53.081Z,18.50
2022-08-22T05:06:28.542Z,16.25
2022-08-22T05:09:03.587Z,15.00
2022-08-22T05:11:38.385Z,13.60
2022-08-22T05:14:13.525Z,11.00
2022-08-22T05:16:48.812Z,10.00
2022-08-22T05:19:29.635Z,10.00
2022-08-22T05:22:05.842Z,8.00
2022-08-22T05:24:41.048Z,8.75
2022-08-22T05:27:15.297Z,8.25
2022-08-22T05:29:49.780Z,8.00
2022-08-22T05:32:34.041Z,8.20
2022-08-22T05:35:09.547Z,7.00
2022-08-22T05:37:46.992Z,7.00
2022-08-22T05:40:21.558Z,5.00
2022-08-22T05:42:55.845Z,8.00
2022-08-22T05:45:34.329Z,9.00
2022-08-22T05:48:08.750Z,7.25
2022-08-22T05:50:50.484Z,10.75
2022-08-22T05:53:25.622Z,8.40
2022-08-22T05:56:02.159Z,7.50
2022-08-22T05:58:36.985Z,6.20
2022-08-22T06:01:12.044Z,9.00
2022-08-22T06:03:47.747Z,9.00
2022-08-22T06:06:28.354Z,7.60
2022-08-22T06:09:02.963Z,8.00
2022-08-22T06:11:38.750Z,8.20
2022-08-22T06:14:13.213Z,7.40
2022-08-22T06:16:48.898Z,8.00
2022-08-22T06:19:28.942Z,8.00
2022-08-22T06:22:04.183Z,8.60
2022-08-22T06:24:38.910Z,8.00
2022-08-22T06:27:14.805Z,7.75
2022-08-22T06:29:50.776Z,6.40
2022-08-22T06:32:58.413Z,8.25
2022-08-22T06:35:49.689Z,9.75
2022-08-22T06:38:49.426Z,9.00
2022-08-22T06:41:40.724Z,9.00
2022-08-22T06:44:24.046Z,6.75
2022-08-22T06:46:58.272Z,9.00
2022-08-22T06:49:32.376Z,7.40
2022-08-22T06:52:06.630Z,7.40
2022-08-22T06:54:41.690Z,7.00
2022-08-22T06:57:34.104Z,6.60
2022-08-22T07:00:08.513Z,8.00
2022-08-22T07:02:46.052Z,9.40
2022-08-22T07:05:20.798Z,9.80
2022-08-22T07:07:58.358Z,8.60
2022-08-22T07:10:34.415Z,9.00
2022-08-22T07:13:12.598Z,9.20
2022-08-22T07:15:46.720Z,10.00
2022-08-22T07:18:21.858Z,10.33
2022-08-22T07:21:00.846Z,11.00
2022-08-22T07:23:39.331Z,7.50
2022-08-22T07:26:16.535Z,8.67
2022-08-22T07:28:57.877Z,10.60
2022-08-22T07:31:38.685Z,9.60
2022-08-22T07:34:13.731Z,10.00
2022-08-22T07:36:48.537Z,11.00
2022-08-22T07:39:26.520Z,13.00
2022-08-22T07:42:04.234Z,12.00
2022-08-22T07:44:39.504Z,12.25
2022-08-22T07:47:26.126Z,12.00
2022-08-22T07:50:00.959Z,15.20
2022-08-22T07:52:36.702Z,15.00
2022-08-22T07:55:14.670Z,16.00
2022-08-22T07:57:49.650Z,16.00
2022-08-22T08:00:35.411Z,15.00
2022-08-22T08:03:26.479Z,15.75
2022-08-22T08:06:14.974Z,15.20
2022-08-22T08:08:58.526Z,16.00
2022-08-22T08:11:49.734Z,16.25
2022-08-22T08:14:24.595Z,13.75
2022-08-22T08:17:07.527Z,15.00
2022-08-22T08:19:41.908Z,16.00
2022-08-22T08:22:16.181Z,16.00
2022-08-22T08:24:50.425Z,20.60
2022-08-22T08:27:43.056Z,16.50
2022-08-22T08:30:19.164Z,19.50
2022-08-22T08:33:24.426Z,18.25
2022-08-22T08:36:02.977Z,17.00
2022-08-22T08:38:38.155Z,20.00
2022-08-22T08:41:15.048Z,19.60
2022-08-22T08:43:57.545Z,21.00
2022-08-22T08:46:32.236Z,19.25
2022-08-22T08:49:07.019Z,17.60
2022-08-22T08:51:44.821Z,17.75
2022-08-22T08:54:19.743Z,18.00
2022-08-22T08:56:54.342Z,19.00
2022-08-22T08:59:29.823Z,17.20
2022-08-22T09:02:07.805Z,19.00
2022-08-22T09:05:01.786Z,18.20
2022-08-22T09:07:38.345Z,16.50
2022-08-22T09:10:13.294Z,18.00
2022-08-22T09:12:56.461Z,18.00
2022-08-22T09:15:54.965Z,16.60
2022-08-22T09:18:38.800Z,16.40
2022-08-22T09:21:15.389Z,16.00
2022-08-22T09:24:04.957Z,16.60
2022-08-22T09:26:40.022Z,15.40
2022-08-22T09:29:15.053Z,13.75
2022-08-22T09:31:52.604Z,17.25
2022-08-22T09:34:30.769Z,17.00
2022-08-22T09:37:05.763Z,17.50
2022-08-22T09:39:41.832Z,17.20
2022-08-22T09:42:16.205Z,17.20
2022-08-22T09:44:51.685Z,13.60
2022-08-22T09:47:25.768Z,14.40
2022-08-22T09:50:00.122Z,15.00
2022-08-22T09:52:52.567Z,15.60
2022-08-22T09:55:35.405Z,15.60
2022-08-22T09:58:19.841Z,15.00
2022-08-22T10:01:02.829Z,18.00
2022-08-22T10:03:37.737Z,14.00
2022-08-22T10:06:11.994Z,16.20
2022-08-22T10:08:46.941Z,14.00
2022-08-22T10:11:21.054Z,13.60
2022-08-22T10:14:01.750Z,15.75
2022-08-22T10:16:50.177Z,17.00
2022-08-22T10:19:26.223Z,15.60
2022-08-22T10:22:12.694Z,15.40
2022-08-22T10:24:49.576Z,13.00
2022-08-22T10:27:25.824Z,15.80
2022-08-22T10:30:03.842Z,13.25
2022-08-22T10:35:34.393Z,15.00
2022-08-22T10:38:10.793Z,14.00
2022-08-22T10:40:47.085Z,15.00
2022-08-22T10:43:28.977Z,14.25
2022-08-22T10:46:22.962Z,11.00
2022-08-22T10:48:58.581Z,13.00
2022-08-22T10:51:33.432Z,11.00
2022-08-22T10:54:08.287Z,11.25
2022-08-22T10:56:43.860Z,11.75
2022-08-22T10:59:18.137Z,11.60
2022-08-22T11:02:00.776Z,11.00
2022-08-22T11:04:35.552Z,12.00
2022-08-22T11:07:36.187Z,12.00
2022-08-22T11:10:13.675Z,11.20
2022-08-22T11:12:50.325Z,11.00
2022-08-22T11:15:34.558Z,10.40
2022-08-22T11:18:12.898Z,10.80
2022-08-22T11:24:55.875Z,13.00
2022-08-22T11:27:39.728Z,11.20
2022-08-22T11:30:18.122Z,15.00
2022-08-22T11:32:56.122Z,12.00
2022-08-22T11:35:36.391Z,11.75
2022-08-22T11:38:13.546Z,14.60
2022-08-22T11:40:55.033Z,13.25
2022-08-22T11:43:32.740Z,13.00
2022-08-22T11:46:07.458Z,13.00
2022-08-22T11:48:48.627Z,9.00
2022-08-22T11:51:25.073Z,12.60
2022-08-22T11:53:59.377Z,14.80
2022-08-22T11:56:35.377Z,12.00
2022-08-22T11:59:14.528Z,12.60
2022-08-22T12:01:48.696Z,13.40
2022-08-22T12:04:24.956Z,13.60
2022-08-22T12:07:02.609Z,14.60
2022-08-22T12:09:37.885Z,14.00
2022-08-22T12:12:12.805Z,15.20
2022-08-22T12:14:47.719Z,14.00
2022-08-22T12:17:50.928Z,12.20
2022-08-22T12:20:20.423Z,15.25
2022-08-22T12:22:54.681Z,15.80
2022-08-22T12:25:29.462Z,14.33
2022-08-22T12:28:06.248Z,14.25
2022-08-22T12:30:43.848Z,14.00
2022-08-22T12:33:23.574Z,13.40
2022-08-22T12:35:58.495Z,16.00
2022-08-22T12:38:36.040Z,14.00
2022-08-22T12:41:12.400Z,14.00
2022-08-22T12:43:46.605Z,16.60
2022-08-22T12:46:23.742Z,17.40
2022-08-22T12:49:07.682Z,16.20
2022-08-22T12:51:50.328Z,15.00
2022-08-22T12:54:29.832Z,15.20
2022-08-22T12:57:04.849Z,13.20
2022-08-22T12:59:58.219Z,14.00
2022-08-22T13:02:34.667Z,13.00
2022-08-22T13:05:12.281Z,14.00
2022-08-22T13:08:13.734Z,14.00
2022-08-22T13:10:54.342Z,14.75
2022-08-22T13:13:31.669Z,15.75
2022-08-22T13:16:11.607Z,14.60
2022-08-22T13:18:46.128Z,13.60
2022-08-22T13:21:24.948Z,12.50
2022-08-22T13:24:02.870Z,13.00
2022-08-22T13:26:43.266Z,13.00
2022-08-22T13:29:27.433Z,13.80
2022-08-22T13:32:12.810Z,11.80
2022-08-22T13:34:46.920Z,12.00
2022-08-22T13:37:24.591Z,11.80
2022-08-22T13:39:58.990Z,13.00
2022-08-22T13:42:33.401Z,15.00
2022-08-22T13:45:08.560Z,14.00
2022-08-22T13:47:45.698Z,12.00
2022-08-22T13:50:52.931Z,13.80
2022-08-22T13:53:29.891Z,13.60
2022-08-22T13:56:04.420Z,14.25
2022-08-22T13:58:39.200Z,13.60
2022-08-22T14:01:14.712Z,14.00
2022-08-22T14:03:55.838Z,14.00
2022-08-22T14:06:36.857Z,13.00
2022-08-22T14:09:13.661Z,16.40
2022-08-22T14:11:48.319Z,14.40
2022-08-22T14:14:23.322Z,14.00
2022-08-22T14:17:01.031Z,14.00
2022-08-22T14:19:52.623Z,17.00
2022-08-22T14:22:31.835Z,15.50
2022-08-22T14:25:09.480Z,12.60
2022-08-22T14:27:49.137Z,15.00
2022-08-22T14:30:27.939Z,14.00
2022-08-22T14:33:02.421Z,15.25
2022-08-22T14:35:39.249Z,11.80
2022-08-22T14:38:17.290Z,13.40
2022-08-22T14:40:51.796Z,14.00
2022-08-22T14:43:27.711Z,14.00
2022-08-22T14:46:02.401Z,14.40
2022-08-22T14:48:39.352Z,17.00
2022-08-22T14:51:16.914Z,17.00
2022-08-22T14:53:53.105Z,17.00
2022-08-22T14:56:28.457Z,14.20
2022-08-22T14:59:03.103Z,15.25
2022-08-22T15:01:37.458Z,14.40
2022-08-22T15:04:11.606Z,16.00
2022-08-22T15:06:48.322Z,17.25
2022-08-22T15:09:22.668Z,17.00
2022-08-22T15:11:57.286Z,18.40
2022-08-22T15:14:31.698Z,17.60
2022-08-22T15:17:05.732Z,15.20
2022-08-22T15:19:41.310Z,17.00
2022-08-22T15:22:15.908Z,16.00
2022-08-22T15:24:50.086Z,14.00
2022-08-22T15:27:29.038Z,16.20
2022-08-22T15:30:03.669Z,16.40
2022-08-22T15:32:41.935Z,15.50
2022-08-22T15:35:17.758Z,16.00
2022-08-22T15:37:52.473Z,18.40
2022-08-22T15:40:26.506Z,14.00
2022-08-22T15:43:01.561Z,17.00
2022-08-22T15:45:36.271Z,15.00
2022-08-22T15:48:11.033Z,16.00
2022-08-22T15:50:45.119Z,16.00
2022-08-22T15:53:19.287Z,16.00
2022-08-22T15:55:53.351Z,16.00
2022-08-22T15:58:27.769Z,16.00
2022-08-22T16:01:01.941Z,17.20
2022-08-22T16:03:36.126Z,14.00
2022-08-22T16:06:10.645Z,17.60
2022-08-22T16:08:45.797Z,18.20
2022-08-22T16:11:19.905Z,16.60
2022-08-22T16:13:53.958Z,17.60
2022-08-22T16:16:31.451Z,15.80
2022-08-22T16:19:05.472Z,16.25
2022-08-22T16:21:39.692Z,16.75
2022-08-22T16:24:14.208Z,16.20
2022-08-22T16:26:51.076Z,16.00
2022-08-22T16:29:25.242Z,16.25
2022-08-22T16:31:59.419Z,16.20
2022-08-22T16:34:33.742Z,16.00
2022-08-22T16:37:07.931Z,16.00
2022-08-22T16:39:42.054Z,15.00
2022-08-22T16:42:23.443Z,18.50
2022-08-22T16:44:57.947Z,13.00
2022-08-22T16:47:33.451Z,10.25
2022-08-22T16:50:07.499Z,12.40
2022-08-22T16:52:41.459Z,11.50
2022-08-22T16:55:16.709Z,10.75
2022-08-22T16:58:05.265Z,11.00
2022-08-22T17:00:40.087Z,9.40
2022-08-22T17:03:14.202Z,11.50
2022-08-22T17:05:48.415Z,11.00
2022-08-22T17:08:23.013Z,11.00
2022-08-22T17:10:57.217Z,11.00
2022-08-22T17:13:32.832Z,11.00
2022-08-22T17:16:07.905Z,11.00
2022-08-22T17:18:42.037Z,10.20
2022-08-22T17:21:16.139Z,10.00
2022-08-22T17:23:50.367Z,10.00
2022-08-22T17:26:24.780Z,10.00
2022-08-22T17:28:58.879Z,10.00
2022-08-22T17:31:33.606Z,9.60
2022-08-22T17:34:07.792Z,8.50
2022-08-22T17:36:42.262Z,9.00
2022-08-22T17:39:16.539Z,10.00
2022-08-22T17:41:50.688Z,10.25
2022-08-22T17:44:24.786Z,11.60
2022-08-22T17:46:59.311Z,9.80
2022-08-22T17:49:33.360Z,8.75
2022-08-22T17:52:07.771Z,10.00
2022-08-22T17:54:42.373Z,8.00
2022-08-22T17:57:16.424Z,8.00
2022-08-22T17:59:50.877Z,9.40
2022-08-22T18:02:25.620Z,9.00
2022-08-22T18:05:00.064Z,9.00
2022-08-22T18:07:34.669Z,9.00
2022-08-22T18:10:08.806Z,8.00
2022-08-22T18:12:42.903Z,9.00
2022-08-22T18:15:17.034Z,6.00
2022-08-22T18:17:51.249Z,8.00
2022-08-22T18:20:25.437Z,8.00
2022-08-22T18:22:59.685Z,7.00
2022-08-22T18:25:35.320Z,8.00
2022-08-22T18:28:09.401Z,6.00
2022-08-22T18:30:43.653Z,6.50
2022-08-22T18:33:17.761Z,6.00
2022-08-22T18:35:54.526Z,6.00
2022-08-22T18:38:30.285Z,5.75
2022-08-22T18:41:04.708Z,5.00
2022-08-22T18:43:38.911Z,6.50
2022-08-22T18:46:13.465Z,6.00
2022-08-22T18:49:12.044Z,6.00
2022-08-22T18:51:42.576Z,7.00
2022-08-22T18:54:16.780Z,6.00
2022-08-22T18:56:51.185Z,7.00
2022-08-22T18:59:25.747Z,4.80
2022-08-22T19:02:00.104Z,7.40
2022-08-22T19:04:34.668Z,5.00
2022-08-22T19:07:08.765Z,5.20
2022-08-22T19:09:42.796Z,5.00
2022-08-22T19:12:17.300Z,4.00
2022-08-22T19:14:51.395Z,5.00
2022-08-22T19:17:25.441Z,5.00
2022-08-22T19:20:17.751Z,5.00
2022-08-22T19:22:54.633Z,4.00
2022-08-22T19:25:28.776Z,5.00
2022-08-22T19:28:02.879Z,3.00
2022-08-22T19:30:37.058Z,4.00
2022-08-22T19:33:11.142Z,3.75
2022-08-22T19:35:45.187Z,3.00
2022-08-22T19:38:19.418Z,3.80
2022-08-22T19:40:54.334Z,4.00
2022-08-22T19:43:28.856Z,3.20
2022-08-22T19:46:04.744Z,3.00
2022-08-22T19:48:38.836Z,2.20
2022-08-22T19:51:13.567Z,2.00
2022-08-22T19:53:47.638Z,3.00
2022-08-22T19:56:21.583Z,3.00
2022-08-22T19:58:56.121Z,2.40
2022-08-22T20:01:30.295Z,3.00
2022-08-22T20:04:04.641Z,2.60
2022-08-22T20:06:46.259Z,2.00
2022-08-22T20:09:21.001Z,3.00
2022-08-22T20:11:56.201Z,2.00
2022-08-22T20:14:31.606Z,3.00
2022-08-22T20:17:05.721Z,1.40
2022-08-22T20:19:39.872Z,1.00
2022-08-22T20:22:14.689Z,2.00
2022-08-22T20:24:49.967Z,3.00
2022-08-22T20:27:24.556Z,2.00
2022-08-22T20:29:58.487Z,2.00
2022-08-22T20:32:32.433Z,1.00
2022-08-22T20:35:06.469Z,2.00
2022-08-22T20:38:05.367Z,1.40
2022-08-22T20:40:55.163Z,1.20
2022-08-22T20:43:28.571Z,2.00
2022-08-22T20:46:02.640Z,1.00
2022-08-22T20:48:37.209Z,1.60
2022-08-22T20:51:11.656Z,2.00
2022-08-22T20:53:45.613Z,1.00
2022-08-22T20:56:24.036Z,1.00
2022-08-22T20:59:01.041Z,1.80
2022-08-22T21:01:35.496Z,1.25
2022-08-22T21:04:09.500Z,1.25
2022-08-22T21:06:43.550Z,2.00
2022-08-22T21:09:35.921Z,1.00
2022-08-22T21:12:10.636Z,1.25
2022-08-22T21:14:47.985Z,2.00
2022-08-22T21:17:22.084Z,2.00
2022-08-22T21:19:57.888Z,2.75
2022-08-22T21:22:32.000Z,2.00
2022-08-22T21:25:05.959Z,1.00
2022-08-22T21:27:39.992Z,2.00
2022-08-22T21:30:13.940Z,2.20
2022-08-22T21:32:50.156Z,2.00
2022-08-22T21:35:27.763Z,2.00
2022-08-22T21:38:01.983Z,2.00
2022-08-22T21:40:36.205Z,2.00
2022-08-22T21:43:10.727Z,1.00
2022-08-22T21:45:45.033Z,1.00
2022-08-22T21:48:19.067Z,1.00
2022-08-22T21:50:53.137Z,2.00
2022-08-22T21:53:28.479Z,1.00
2022-08-22T21:56:02.706Z,1.00
2022-08-22T21:58:37.493Z,1.00
2022-08-22T22:01:11.638Z,1.00
2022-08-22T22:03:48.405Z,1.00
2022-08-22T22:06:22.443Z,1.00
2022-08-22T22:08:56.542Z,2.00
2022-08-22T22:11:30.574Z,1.00
2022-08-22T22:14:04.684Z,1.25
2022-08-22T22:16:39.287Z,2.00
2022-08-22T22:19:13.749Z,2.00
2022-08-22T22:21:47.899Z,2.00
2022-08-22T22:24:21.931Z,1.00
2022-08-22T22:26:55.955Z,2.00
2022-08-22T22:29:29.941Z,2.25
2022-08-22T22:32:04.327Z,2.00
2022-08-22T22:34:39.955Z,2.00
2022-08-22T22:37:15.574Z,2.00
2022-08-22T22:39:49.586Z,1.00
2022-08-22T22:42:23.724Z,2.00
2022-08-22T22:44:57.910Z,2.00
2022-08-22T22:47:32.944Z,2.00
2022-08-22T22:50:06.888Z,2.00
2022-08-22T22:52:41.137Z,2.00
2022-08-22T22:55:24.132Z,2.00
2022-08-22T22:57:59.577Z,2.00
2022-08-22T23:00:34.197Z,2.00
2022-08-22T23:03:08.398Z,1.40
2022-08-22T23:05:42.463Z,2.00
2022-08-22T23:08:16.527Z,1.60
2022-08-22T23:10:50.763Z,2.75
2022-08-22T23:13:24.811Z,2.50
2022-08-22T23:15:58.828Z,2.00
2022-08-22T23:18:32.870Z,2.00
2022-08-22T23:21:07.690Z,3.00
2022-08-22T23:23:42.157Z,4.00
2022-08-22T23:26:16.205Z,3.00
2022-08-22T23:28:50.235Z,2.00
2022-08-22T23:31:24.178Z,2.00
2022-08-22T23:33:58.253Z,5.00
2022-08-22T23:36:32.280Z,3.00
2022-08-22T23:39:06.307Z,3.00
2022-08-22T23:41:41.290Z,4.00
2022-08-22T23:44:15.308Z,3.50
2022-08-22T23:46:49.287Z,3.20
2022-08-22T23:49:23.315Z,3.00
2022-08-22T23:51:57.236Z,4.00
2022-08-22T23:54:31.432Z,4.00
2022-08-22T23:57:11.822Z,3.00
2022-08-22T23:59:57.446Z,2.00
